Time;durP1;ratioP1;P1;durP2;ratioP2;P2;SDS_P1;SDS_P2;PMS_P1;PMS_P2;Temp;Humidity;BMP_temperature;BMP_pressure;BME280_temperature;BME280_humidity;BME280_pressure;Samples;Min_cycle;Max_cycle;Signal;HPM_P1;HPM_P2
2021/05/01 00:01:16;;;;;;;12.32;10.30;;;;;;;;;;5093017;28;20910;-84
2021/05/01 00:03:42;;;;;;;11.13;9.93;;;;;;;;;;5094090;28;20440;-87
2021/05/01 00:06:08;;;;;;;11.35;10.25;;;;;;;;;;5093896;28;20981;-86
2021/05/01 00:08:34;;;;;;;13.55;10.27;;;;;;;;;;5093769;28;20439;-83
2021/05/01 00:11:02;;;;;;;12.80;10.30;;;;;;;;;;5094394;28;20843;-83
2021/05/01 00:13:29;;;;;;;13.67;11.73;;;;;;;;;;5076176;28;20463;-85
2021/05/01 00:15:55;;;;;;;15.27;11.70;;;;;;;;;;5075776;28;20368;-87
2021/05/01 00:18:21;;;;;;;14.95;11.73;;;;;;;;;;5093354;28;20433;-85
2021/05/01 00:20:47;;;;;;;13.57;12.18;;;;;;;;;;5075518;28;20380;-84
2021/05/01 00:23:14;;;;;;;14.38;11.73;;;;;;;;;;5093927;28;20400;-84
2021/05/01 00:25:39;;;;;;;13.45;11.20;;;;;;;;;;5094235;28;20422;-82
2021/05/01 00:28:05;;;;;;;12.70;11.33;;;;;;;;;;5093872;28;20404;-86
2021/05/01 00:30:31;;;;;;;14.10;11.63;;;;;;;;;;5076135;28;20380;-87
2021/05/01 00:32:58;;;;;;;15.40;11.52;;;;;;;;;;5093931;28;20368;-88
2021/05/01 00:35:24;;;;;;;15.70;12.15;;;;;;;;;;5093503;28;20403;-81
2021/05/01 00:37:50;;;;;;;12.35;10.80;;;;;;;;;;5074770;28;20376;-86
2021/05/01 00:40:17;;;;;;;11.30;10.13;;;;;;;;;;5093632;28;20361;-86
2021/05/01 00:42:43;;;;;;;12.63;11.23;;;;;;;;;;5094458;28;20411;-85
2021/05/01 00:45:09;;;;;;;11.10;9.95;;;;;;;;;;5097558;28;20468;-84
2021/05/01 00:47:35;;;;;;;11.88;10.57;;;;;;;;;;5093916;28;20378;-85
2021/05/01 00:50:01;;;;;;;11.82;10.48;;;;;;;;;;5093986;28;20360;-83
2021/05/01 00:52:27;;;;;;;14.02;10.90;;;;;;;;;;5093693;28;20873;-86
2021/05/01 00:54:53;;;;;;;14.00;12.20;;;;;;;;;;5092274;28;20392;-84
2021/05/01 00:57:19;;;;;;;12.93;11.30;;;;;;;;;;5092993;28;20373;-89
2021/05/01 00:59:45;;;;;;;13.07;11.10;;;;;;;;;;5093359;28;20372;-86
2021/05/01 01:02:14;;;;;;;12.10;10.68;;;;;;;;;;5093157;28;20369;-87
2021/05/01 01:04:41;;;;;;;12.02;10.18;;;;;;;;;;5093183;28;20399;-85
2021/05/01 01:07:07;;;;;;;13.13;11.68;;;;;;;;;;5093802;28;20406;-83
2021/05/01 01:09:33;;;;;;;14.80;11.43;;;;;;;;;;5077085;28;20364;-84
2021/05/01 01:11:59;;;;;;;11.80;10.63;;;;;;;;;;5093126;28;20364;-85
2021/05/01 01:14:25;;;;;;;14.73;12.18;;;;;;;;;;5093099;28;20360;-83
2021/05/01 01:16:51;;;;;;;12.95;11.15;;;;;;;;;;5092857;28;20369;-86
2021/05/01 01:19:17;;;;;;;12.23;10.40;;;;;;;;;;5074694;28;20372;-87
2021/05/01 01:21:46;;;;;;;12.82;10.98;;;;;;;;;;5074792;28;20907;-84
2021/05/01 01:24:13;;;;;;;13.98;10.90;;;;;;;;;;5093119;28;20364;-82
2021/05/01 01:26:40;;;;;;;13.55;10.60;;;;;;;;;;5074819;28;20471;-86
2021/05/01 01:29:06;;;;;;;12.18;10.35;;;;;;;;;;5092212;28;20410;-80
2021/05/01 01:31:32;;;;;;;11.00;9.90;;;;;;;;;;5092399;28;20369;-85
2021/05/01 01:33:59;;;;;;;11.05;9.88;;;;;;;;;;5092711;28;20367;-86
2021/05/01 01:36:25;;;;;;;13.68;11.93;;;;;;;;;;5074422;28;20791;-84
2021/05/01 01:38:51;;;;;;;13.57;11.00;;;;;;;;;;5092329;28;20447;-86
2021/05/01 01:41:17;;;;;;;12.50;10.90;;;;;;;;;;5074578;28;20521;-85
2021/05/01 01:43:43;;;;;;;13.43;12.03;;;;;;;;;;5092662;28;20445;-83
2021/05/01 01:46:09;;;;;;;15.85;12.52;;;;;;;;;;5074689;28;20424;-84
2021/05/01 01:48:35;;;;;;;13.60;11.60;;;;;;;;;;5074092;28;20855;-83
2021/05/01 01:51:01;;;;;;;15.13;12.27;;;;;;;;;;5092411;28;20440;-82
2021/05/01 01:53:27;;;;;;;14.13;12.18;;;;;;;;;;5074283;28;20865;-87
2021/05/01 01:55:53;;;;;;;15.77;13.25;;;;;;;;;;5092202;28;20361;-87
2021/05/01 01:58:19;;;;;;;12.80;11.40;;;;;;;;;;5091891;28;20368;-85
2021/05/01 02:00:46;;;;;;;13.63;11.07;;;;;;;;;;5074027;28;20368;-85
2021/05/01 02:03:14;;;;;;;14.25;12.80;;;;;;;;;;5091991;28;20389;-83
2021/05/01 02:05:40;;;;;;;12.88;11.48;;;;;;;;;;5073529;28;20400;-82
2021/05/01 02:08:06;;;;;;;13.25;11.85;;;;;;;;;;5072899;28;20372;-84
2021/05/01 02:10:32;;;;;;;13.85;11.15;;;;;;;;;;5091292;28;20368;-84
2021/05/01 02:12:58;;;;;;;15.10;11.73;;;;;;;;;;5091680;28;20369;-84
2021/05/01 02:15:25;;;;;;;14.10;11.38;;;;;;;;;;5091398;28;20769;-84
2021/05/01 02:17:52;;;;;;;14.02;12.50;;;;;;;;;;5072924;28;21116;-85
2021/05/01 02:20:23;;;;;;;13.68;12.25;;;;;;;;;;5072588;28;20384;-84
2021/05/01 02:22:49;;;;;;;16.05;12.32;;;;;;;;;;5073876;28;20372;-85
2021/05/01 02:25:15;;;;;;;13.30;11.90;;;;;;;;;;5091620;28;20415;-83
2021/05/01 02:27:41;;;;;;;13.18;11.80;;;;;;;;;;5091900;28;20363;-81
2021/05/01 02:30:09;;;;;;;14.32;12.30;;;;;;;;;;5074764;28;20365;-84
2021/05/01 02:32:35;;;;;;;12.70;11.40;;;;;;;;;;5093067;28;20365;-81
2021/05/01 02:35:01;;;;;;;18.38;13.00;;;;;;;;;;5074732;28;20371;-81
2021/05/01 02:37:27;;;;;;;13.27;11.70;;;;;;;;;;5074161;28;20372;-84
2021/05/01 02:39:53;;;;;;;14.13;11.80;;;;;;;;;;5073387;28;20365;-82
2021/05/01 02:42:19;;;;;;;13.68;12.20;;;;;;;;;;5072802;28;20940;-86
2021/05/01 02:44:45;;;;;;;13.10;11.73;;;;;;;;;;5072388;28;20392;-86
2021/05/01 02:47:11;;;;;;;16.25;12.20;;;;;;;;;;5090327;28;20413;-84
2021/05/01 02:49:37;;;;;;;13.82;12.32;;;;;;;;;;5090934;28;20368;-86
2021/05/01 02:52:04;;;;;;;14.00;12.15;;;;;;;;;;5091285;28;20779;-82
2021/05/01 02:54:29;;;;;;;15.57;13.17;;;;;;;;;;5091191;28;20905;-82
2021/05/01 02:56:55;;;;;;;15.00;12.63;;;;;;;;;;5072690;28;20487;-84
2021/05/01 02:59:21;;;;;;;15.07;11.80;;;;;;;;;;5072953;28;20365;-87
2021/05/01 03:01:47;;;;;;;12.43;11.23;;;;;;;;;;5090861;28;20760;-85
2021/05/01 03:04:14;;;;;;;15.07;12.23;;;;;;;;;;5090738;28;20371;-83
2021/05/01 03:06:40;;;;;;;13.20;10.82;;;;;;;;;;5090465;28;20471;-85
2021/05/01 03:09:06;;;;;;;14.20;12.07;;;;;;;;;;5090286;28;20812;-83
2021/05/01 03:11:32;;;;;;;12.98;11.50;;;;;;;;;;5072635;28;20361;-81
2021/05/01 03:13:58;;;;;;;14.55;11.15;;;;;;;;;;5090623;28;20379;-86
2021/05/01 03:16:24;;;;;;;12.27;10.70;;;;;;;;;;5090221;28;20559;-82
2021/05/01 03:18:50;;;;;;;12.63;11.30;;;;;;;;;;5090055;28;20947;-82
2021/05/01 03:21:16;;;;;;;13.37;11.77;;;;;;;;;;5090776;28;20719;-86
2021/05/01 03:23:42;;;;;;;16.60;12.43;;;;;;;;;;5090699;28;20364;-84
2021/05/01 03:26:08;;;;;;;17.15;12.93;;;;;;;;;;5072698;28;20796;-84
2021/05/01 03:28:34;;;;;;;15.40;12.18;;;;;;;;;;5085517;28;20376;-81
2021/05/01 03:31:00;;;;;;;13.75;12.05;;;;;;;;;;5082418;28;20372;-81
2021/05/01 03:33:28;;;;;;;14.05;11.80;;;;;;;;;;5102564;28;20371;-81
2021/05/01 03:35:55;;;;;;;14.25;12.18;;;;;;;;;;5099012;28;20400;-84
2021/05/01 03:38:21;;;;;;;14.73;12.95;;;;;;;;;;5091094;28;20781;-82
2021/05/01 03:40:48;;;;;;;12.80;11.50;;;;;;;;;;5090923;28;20365;-81
2021/05/01 03:43:14;;;;;;;14.90;12.00;;;;;;;;;;5090802;28;20361;-83
2021/05/01 03:45:40;;;;;;;13.00;11.37;;;;;;;;;;5072647;28;20727;-84
2021/05/01 03:48:08;;;;;;;13.20;11.60;;;;;;;;;;5072487;28;20364;-87
2021/05/01 03:50:34;;;;;;;13.20;11.82;;;;;;;;;;5072811;28;20846;-83
2021/05/01 03:52:59;;;;;;;14.13;12.63;;;;;;;;;;5090390;28;20356;-89
2021/05/01 03:55:27;;;;;;;13.05;11.65;;;;;;;;;;5090551;28;20768;-86
2021/05/01 03:57:53;;;;;;;12.88;11.57;;;;;;;;;;5090107;28;20372;-85
2021/05/01 04:00:20;;;;;;;13.10;11.57;;;;;;;;;;5090336;28;20833;-81
2021/05/01 04:02:46;;;;;;;15.10;12.20;;;;;;;;;;5090277;28;20758;-84
2021/05/01 04:05:13;;;;;;;13.40;11.68;;;;;;;;;;5072333;28;20754;-83
2021/05/01 04:07:39;;;;;;;14.90;12.35;;;;;;;;;;5072091;28;20380;-83
2021/05/01 04:10:05;;;;;;;15.73;13.23;;;;;;;;;;5090539;28;20459;-87
2021/05/01 04:12:31;;;;;;;13.88;11.95;;;;;;;;;;5072429;28;20372;-81
2021/05/01 04:14:57;;;;;;;13.82;12.38;;;;;;;;;;5090317;28;20380;-86
2021/05/01 04:17:23;;;;;;;14.70;12.35;;;;;;;;;;5072164;28;20365;-83
2021/05/01 04:19:49;;;;;;;13.55;12.15;;;;;;;;;;5072286;28;20399;-82
2021/05/01 04:22:19;;;;;;;15.40;12.30;;;;;;;;;;5090229;28;20363;-85
2021/05/01 04:24:45;;;;;;;13.43;12.10;;;;;;;;;;5090217;28;20371;-81
2021/05/01 04:27:11;;;;;;;16.30;13.73;;;;;;;;;;5089580;28;20727;-85
2021/05/01 04:29:37;;;;;;;13.10;11.73;;;;;;;;;;5072352;28;20364;-85
2021/05/01 04:32:03;;;;;;;16.48;13.32;;;;;;;;;;5075815;28;20380;-81
2021/05/01 04:34:29;;;;;;;15.00;12.27;;;;;;;;;;5094329;28;20353;-85
2021/05/01 04:36:55;;;;;;;15.70;12.10;;;;;;;;;;5094246;28;20378;-87
2021/05/01 04:39:21;;;;;;;13.88;12.32;;;;;;;;;;5097012;28;20360;-84
2021/05/01 04:41:48;;;;;;;13.53;12.13;;;;;;;;;;5096475;28;20390;-88
2021/05/01 04:44:14;;;;;;;13.83;12.37;;;;;;;;;;5075544;28;21018;-82
2021/05/01 04:46:40;;;;;;;13.38;11.93;;;;;;;;;;5075539;28;20403;-86
2021/05/01 04:49:07;;;;;;;13.98;12.35;;;;;;;;;;5093432;28;20357;-86
2021/05/01 04:51:34;;;;;;;12.77;11.43;;;;;;;;;;5093992;28;20404;-82
2021/05/01 04:54:00;;;;;;;15.07;13.48;;;;;;;;;;5093620;28;20388;-85
2021/05/01 04:56:26;;;;;;;15.30;12.38;;;;;;;;;;5093112;28;20365;-82
2021/05/01 04:58:52;;;;;;;13.77;12.38;;;;;;;;;;5093199;28;20448;-84
2021/05/01 05:01:18;;;;;;;14.05;12.63;;;;;;;;;;5075423;28;20467;-84
2021/05/01 05:03:44;;;;;;;14.70;12.20;;;;;;;;;;5093237;28;20418;-85
2021/05/01 05:06:10;;;;;;;14.30;12.10;;;;;;;;;;5075233;28;20972;-84
2021/05/01 05:08:36;;;;;;;14.02;12.60;;;;;;;;;;5075310;28;20365;-82
2021/05/01 05:11:02;;;;;;;12.10;11.00;;;;;;;;;;5093016;28;20367;-86
2021/05/01 05:13:28;;;;;;;13.30;11.93;;;;;;;;;;5092988;28;20435;-85
2021/05/01 05:15:54;;;;;;;13.48;12.07;;;;;;;;;;5093527;28;20841;-85
2021/05/01 05:18:20;;;;;;;13.20;11.90;;;;;;;;;;5075259;28;20407;-84
2021/05/01 05:20:47;;;;;;;13.55;12.18;;;;;;;;;;5093111;28;20379;-87
2021/05/01 05:23:13;;;;;;;14.30;11.77;;;;;;;;;;5093196;28;20845;-82
2021/05/01 05:25:39;;;;;;;15.07;12.98;;;;;;;;;;5075161;28;20423;-84
2021/05/01 05:28:05;;;;;;;15.15;13.02;;;;;;;;;;5074959;28;20854;-84
2021/05/01 05:30:31;;;;;;;13.68;11.98;;;;;;;;;;5093530;28;20367;-85
2021/05/01 05:32:57;;;;;;;12.23;10.95;;;;;;;;;;5074796;28;20373;-87
2021/05/01 05:35:23;;;;;;;14.10;12.38;;;;;;;;;;5074838;28;20380;-84
2021/05/01 05:37:50;;;;;;;14.13;12.02;;;;;;;;;;5074520;28;21023;-82
2021/05/01 05:40:16;;;;;;;13.20;11.70;;;;;;;;;;5092814;28;20376;-81
2021/05/01 05:42:43;;;;;;;14.93;12.63;;;;;;;;;;5092656;28;20368;-86
2021/05/01 05:45:10;;;;;;;15.07;12.30;;;;;;;;;;5074068;28;20396;-86
2021/05/01 05:47:36;;;;;;;15.23;12.10;;;;;;;;;;5092289;28;20368;-80
2021/05/01 05:50:02;;;;;;;14.68;12.20;;;;;;;;;;5074469;28;20727;-83
2021/05/01 05:52:28;;;;;;;14.43;12.88;;;;;;;;;;5092375;28;20376;-84
2021/05/01 05:54:54;;;;;;;14.13;12.23;;;;;;;;;;5092301;28;20467;-83
2021/05/01 05:57:20;;;;;;;13.93;12.40;;;;;;;;;;5092330;28;20373;-86
2021/05/01 05:59:46;;;;;;;13.90;12.47;;;;;;;;;;5074483;28;20408;-82
2021/05/01 06:02:14;;;;;;;16.10;13.25;;;;;;;;;;5074592;28;20384;-87
2021/05/01 06:04:52;;;;;;;13.75;12.35;;;;;;;;;;5094001;28;20719;-84
2021/05/01 06:07:25;;;;;;;16.55;13.43;;;;;;;;;;5093527;28;20372;-87
2021/05/01 06:09:51;;;;;;;17.02;13.52;;;;;;;;;;5075405;28;20375;-82
2021/05/01 06:12:20;;;;;;;17.60;13.77;;;;;;;;;;5093172;28;20389;-85
2021/05/01 06:14:46;;;;;;;17.88;14.38;;;;;;;;;;5073613;28;20373;-82
2021/05/01 06:17:12;;;;;;;16.17;13.50;;;;;;;;;;5073722;28;20830;-83
2021/05/01 06:19:42;;;;;;;15.45;13.63;;;;;;;;;;5092086;28;20368;-86
2021/05/01 06:22:08;;;;;;;15.95;14.25;;;;;;;;;;5091948;28;20368;-84
2021/05/01 06:24:34;;;;;;;16.60;13.90;;;;;;;;;;5091744;28;20361;-85
2021/05/01 06:27:01;;;;;;;17.33;13.65;;;;;;;;;;5091294;28;20360;-89
2021/05/01 06:29:27;;;;;;;15.63;13.98;;;;;;;;;;5073946;28;20851;-82
2021/05/01 06:31:53;;;;;;;16.50;14.68;;;;;;;;;;5091955;28;20884;-83
2021/05/01 06:34:19;;;;;;;18.23;15.40;;;;;;;;;;5091458;28;20364;-87
2021/05/01 06:36:46;;;;;;;16.17;14.47;;;;;;;;;;5091690;28;20376;-82
2021/05/01 06:39:13;;;;;;;17.00;14.02;;;;;;;;;;5073469;28;20379;-90
2021/05/01 06:41:48;;;;;;;15.68;13.90;;;;;;;;;;5091713;28;20372;-84
2021/05/01 06:44:18;;;;;;;15.82;13.27;;;;;;;;;;5091885;28;20390;-87
2021/05/01 06:46:48;;;;;;;16.15;13.65;;;;;;;;;;5091162;28;20392;-80
2021/05/01 06:49:29;;;;;;;15.35;13.23;;;;;;;;;;5090202;28;20368;-83
2021/05/01 06:51:56;;;;;;;17.00;14.02;;;;;;;;;;5090648;28;20450;-84
2021/05/01 06:54:23;;;;;;;15.63;13.68;;;;;;;;;;5071993;28;20380;-85
2021/05/01 06:56:50;;;;;;;15.30;13.77;;;;;;;;;;5090921;28;20361;-82
2021/05/01 06:59:16;;;;;;;14.43;12.97;;;;;;;;;;5090489;28;20364;-87
2021/05/01 07:01:45;;;;;;;16.10;14.23;;;;;;;;;;5072583;28;20396;-84
2021/05/01 07:04:12;;;;;;;16.40;13.98;;;;;;;;;;5090592;28;20377;-87
2021/05/01 07:06:39;;;;;;;16.83;14.30;;;;;;;;;;5089965;28;20396;-84
2021/05/01 07:09:05;;;;;;;17.08;14.32;;;;;;;;;;5090861;28;20379;-83
2021/05/01 07:11:32;;;;;;;17.58;14.90;;;;;;;;;;5090688;28;20352;-82
2021/05/01 07:13:58;;;;;;;16.17;14.52;;;;;;;;;;5089728;28;20364;-85
2021/05/01 07:16:24;;;;;;;17.50;15.50;;;;;;;;;;5072655;28;20708;-83
2021/05/01 07:18:50;;;;;;;16.10;14.45;;;;;;;;;;5090445;28;20368;-83
2021/05/01 07:21:18;;;;;;;16.73;15.03;;;;;;;;;;5090857;28;20376;-85
2021/05/01 07:23:44;;;;;;;18.98;15.65;;;;;;;;;;5062876;28;20432;-82
2021/05/01 07:26:12;;;;;;;16.80;14.70;;;;;;;;;;5088888;28;20403;-86
2021/05/01 07:28:41;;;;;;;16.00;14.32;;;;;;;;;;5090420;28;20387;-83
2021/05/01 07:31:08;;;;;;;20.35;16.15;;;;;;;;;;5090449;28;20368;-81
2021/05/01 07:33:43;;;;;;;19.00;15.65;;;;;;;;;;5088754;28;20731;-83
2021/05/01 07:36:11;;;;;;;17.45;14.65;;;;;;;;;;5089633;28;20364;-83
2021/05/01 07:38:37;;;;;;;20.02;16.65;;;;;;;;;;5089275;28;20422;-82
2021/05/01 07:41:04;;;;;;;18.55;16.65;;;;;;;;;;5071367;28;20715;-82
2021/05/01 07:43:30;;;;;;;19.92;17.70;;;;;;;;;;5071304;28;20368;-84
2021/05/01 07:45:58;;;;;;;19.38;17.05;;;;;;;;;;5071004;28;20388;-81
2021/05/01 07:48:25;;;;;;;19.85;16.67;;;;;;;;;;5072238;28;20372;-85
2021/05/01 07:50:51;;;;;;;18.33;16.15;;;;;;;;;;5072100;28;20403;-83
2021/05/01 07:53:17;;;;;;;18.98;15.52;;;;;;;;;;5090061;28;20408;-83
2021/05/01 07:55:44;;;;;;;18.65;16.20;;;;;;;;;;5089972;28;20502;-85
2021/05/01 07:58:10;;;;;;;20.25;16.70;;;;;;;;;;5089961;28;20364;-85
2021/05/01 08:00:36;;;;;;;20.10;17.38;;;;;;;;;;5089152;28;20386;-82
2021/05/01 08:03:02;;;;;;;19.63;17.35;;;;;;;;;;5098069;28;20369;-82
2021/05/01 08:05:29;;;;;;;20.63;17.90;;;;;;;;;;5096418;28;20793;-80
2021/05/01 08:07:55;;;;;;;23.23;18.67;;;;;;;;;;5100350;28;20384;-82
2021/05/01 08:10:21;;;;;;;23.00;19.73;;;;;;;;;;5077466;28;20414;-86
2021/05/01 08:12:47;;;;;;;24.85;22.20;;;;;;;;;;5076440;28;20380;-83
2021/05/01 08:15:13;;;;;;;22.88;20.42;;;;;;;;;;5089595;28;20375;-82
2021/05/01 08:17:40;;;;;;;23.55;21.13;;;;;;;;;;5070961;28;20731;-85
2021/05/01 08:20:07;;;;;;;24.33;21.40;;;;;;;;;;5092933;28;20388;-86
2021/05/01 08:22:35;;;;;;;25.08;22.23;;;;;;;;;;5074801;28;20781;-83
2021/05/01 08:25:01;;;;;;;23.83;21.02;;;;;;;;;;5075706;28;20491;-83
2021/05/01 08:27:27;;;;;;;21.35;19.15;;;;;;;;;;5093609;28;20487;-82
2021/05/01 08:29:53;;;;;;;21.70;19.38;;;;;;;;;;5093113;28;20457;-84
2021/05/01 08:32:19;;;;;;;22.27;19.88;;;;;;;;;;5096780;28;20375;-81
2021/05/01 08:34:46;;;;;;;18.87;16.97;;;;;;;;;;5095654;28;20364;-79
2021/05/01 08:37:12;;;;;;;19.73;17.63;;;;;;;;;;5093781;28;20384;-85
2021/05/01 08:39:38;;;;;;;20.17;17.97;;;;;;;;;;5074355;28;20388;-82
2021/05/01 08:42:04;;;;;;;18.63;16.43;;;;;;;;;;5092456;28;20368;-82
2021/05/01 08:44:30;;;;;;;20.50;18.23;;;;;;;;;;5092095;28;20372;-87
2021/05/01 08:46:56;;;;;;;17.35;15.40;;;;;;;;;;5073866;28;20403;-85
2021/05/01 08:49:22;;;;;;;19.05;17.15;;;;;;;;;;5092548;28;20368;-85
2021/05/01 09:32:01;;;;;;;15.40;13.80;;;;;;;;;;5360276;22;20831;-80
2021/05/01 09:34:35;;;;;;;16.67;14.98;;;;;;;;;;4998482;28;20424;-80
2021/05/01 09:37:02;;;;;;;14.82;13.30;;;;;;;;;;5004431;28;20433;-79
2021/05/01 09:39:29;;;;;;;16.45;14.75;;;;;;;;;;5002006;28;20392;-82
2021/05/01 09:41:55;;;;;;;18.08;16.27;;;;;;;;;;5000190;28;20403;-80
2021/05/01 09:44:23;;;;;;;15.98;14.32;;;;;;;;;;4993731;28;20428;-85
2021/05/01 09:46:53;;;;;;;16.27;14.52;;;;;;;;;;4997158;28;20776;-81
2021/05/01 09:49:21;;;;;;;16.33;13.68;;;;;;;;;;5009717;28;20764;-81
2021/05/01 09:51:50;;;;;;;15.27;13.77;;;;;;;;;;5008314;28;20407;-79
2021/05/01 09:54:36;;;;;;;14.33;12.73;;;;;;;;;;5006981;28;20434;-81
2021/05/01 09:57:04;;;;;;;14.73;13.15;;;;;;;;;;5009864;28;20388;-79
2021/05/01 09:59:39;;;;;;;16.00;14.40;;;;;;;;;;4990162;28;20403;-79
2021/05/01 10:02:05;;;;;;;17.30;14.80;;;;;;;;;;5003186;28;20394;-81
2021/05/01 10:04:32;;;;;;;14.90;13.40;;;;;;;;;;4992869;28;20451;-79
2021/05/01 10:06:59;;;;;;;13.63;12.23;;;;;;;;;;5000857;28;20765;-78
2021/05/01 10:09:31;;;;;;;12.95;11.55;;;;;;;;;;5010111;28;20401;-82
2021/05/01 10:12:06;;;;;;;14.30;12.63;;;;;;;;;;5001424;28;20396;-82
2021/05/01 10:14:34;;;;;;;14.63;13.23;;;;;;;;;;4998956;28;20747;-79
2021/05/01 10:17:00;;;;;;;14.88;13.05;;;;;;;;;;5001433;28;20391;-82
2021/05/01 10:19:42;;;;;;;14.60;13.20;;;;;;;;;;4996073;28;20870;-83
2021/05/01 10:22:21;;;;;;;14.73;12.70;;;;;;;;;;4999638;28;20866;-84
2021/05/01 10:24:47;;;;;;;14.55;13.07;;;;;;;;;;4995740;28;20388;-82
2021/05/01 10:27:13;;;;;;;14.65;13.25;;;;;;;;;;4999538;28;20888;-84
2021/05/01 10:29:41;;;;;;;12.82;10.90;;;;;;;;;;4998324;28;20400;-81
2021/05/01 10:32:34;;;;;;;11.30;10.07;;;;;;;;;;4998285;28;20455;-82
2021/05/01 10:35:01;;;;;;;14.20;11.75;;;;;;;;;;4996870;28;20397;-82
2021/05/01 10:37:29;;;;;;;13.63;12.02;;;;;;;;;;5001315;28;20737;-82
2021/05/01 10:39:57;;;;;;;14.10;12.63;;;;;;;;;;4999347;28;20530;-82
2021/05/01 10:42:23;;;;;;;12.75;11.45;;;;;;;;;;4998571;28;20411;-85
2021/05/01 10:45:01;;;;;;;11.77;10.68;;;;;;;;;;4997799;28;20389;-84
2021/05/01 10:47:27;;;;;;;13.27;11.88;;;;;;;;;;4995872;28;20884;-86
2021/05/01 10:49:58;;;;;;;13.93;12.60;;;;;;;;;;4999664;28;20871;-82
2021/05/01 10:52:24;;;;;;;14.25;12.75;;;;;;;;;;4997256;28;20400;-82
2021/05/01 10:55:04;;;;;;;14.40;12.90;;;;;;;;;;4997671;28;20382;-83
2021/05/01 10:57:31;;;;;;;13.52;12.23;;;;;;;;;;4998632;28;20849;-80
2021/05/01 11:00:02;;;;;;;15.05;12.52;;;;;;;;;;5003442;28;20391;-81
2021/05/01 11:02:33;;;;;;;14.32;12.90;;;;;;;;;;4991848;28;20389;-81
2021/05/01 11:05:00;;;;;;;14.05;12.63;;;;;;;;;;4998811;28;20387;-81
2021/05/01 11:07:32;;;;;;;13.90;12.52;;;;;;;;;;5024619;28;20374;-80
2021/05/01 11:10:04;;;;;;;13.45;12.05;;;;;;;;;;5008821;28;20387;-80
2021/05/01 11:12:30;;;;;;;17.30;12.98;;;;;;;;;;4988199;28;20944;-79
2021/05/01 11:14:59;;;;;;;13.27;11.70;;;;;;;;;;4994796;28;20397;-80
2021/05/01 11:17:31;;;;;;;13.95;12.55;;;;;;;;;;4997806;28;20615;-80
2021/05/01 11:20:11;;;;;;;13.23;11.93;;;;;;;;;;5008560;28;20470;-80
2021/05/01 11:22:38;;;;;;;13.43;12.15;;;;;;;;;;5009159;28;20371;-80
2021/05/01 11:25:05;;;;;;;13.25;11.90;;;;;;;;;;4995613;28;20415;-80
2021/05/01 11:27:31;;;;;;;13.77;11.90;;;;;;;;;;4994847;28;21048;-80
2021/05/01 11:29:57;;;;;;;13.25;11.95;;;;;;;;;;4989637;28;20384;-80
2021/05/01 11:32:24;;;;;;;14.00;12.52;;;;;;;;;;5000291;28;20753;-80
2021/05/01 11:35:02;;;;;;;14.40;12.50;;;;;;;;;;4999936;28;20392;-80
2021/05/01 11:37:30;;;;;;;14.05;12.70;;;;;;;;;;4996994;28;20409;-79
2021/05/01 11:39:57;;;;;;;14.48;12.52;;;;;;;;;;5008444;28;20390;-79
2021/05/01 11:42:24;;;;;;;14.07;12.68;;;;;;;;;;5008368;28;20371;-80
2021/05/01 11:44:54;;;;;;;13.20;11.90;;;;;;;;;;4988843;28;20396;-80
2021/05/01 11:47:24;;;;;;;12.50;11.27;;;;;;;;;;4989310;28;20397;-79
2021/05/01 11:49:50;;;;;;;14.15;12.75;;;;;;;;;;4993333;28;20376;-79
2021/05/01 11:52:32;;;;;;;14.38;12.88;;;;;;;;;;4996704;28;20430;-79
2021/05/01 11:55:16;;;;;;;14.32;12.80;;;;;;;;;;4998474;28;20466;-79
2021/05/01 11:57:45;;;;;;;14.52;13.00;;;;;;;;;;4999580;28;20386;-80
2021/05/01 12:00:13;;;;;;;12.57;11.35;;;;;;;;;;4994769;28;20401;-80
2021/05/01 12:02:41;;;;;;;14.40;12.98;;;;;;;;;;4995631;28;20386;-79
2021/05/01 12:05:21;;;;;;;14.88;13.40;;;;;;;;;;5000540;28;20390;-79
2021/05/01 12:07:55;;;;;;;14.55;13.05;;;;;;;;;;4997974;28;20396;-80
2021/05/01 12:10:22;;;;;;;14.27;12.63;;;;;;;;;;5003546;28;20410;-77
2021/05/01 12:12:51;;;;;;;15.88;13.73;;;;;;;;;;4989190;28;20404;-79
2021/05/01 12:15:18;;;;;;;14.00;12.50;;;;;;;;;;5000660;28;20393;-78
2021/05/01 12:17:54;;;;;;;15.18;12.93;;;;;;;;;;5000412;28;20723;-79
2021/05/01 12:20:22;;;;;;;15.38;13.82;;;;;;;;;;4994429;28;20428;-79
2021/05/01 12:22:48;;;;;;;15.55;13.95;;;;;;;;;;4997959;28;20468;-79
2021/05/01 12:25:29;;;;;;;16.25;14.65;;;;;;;;;;4996811;28;20411;-80
2021/05/01 12:27:56;;;;;;;14.25;12.95;;;;;;;;;;4996502;28;20446;-80
2021/05/01 12:30:40;;;;;;;15.05;13.55;;;;;;;;;;5000715;28;20398;-81
2021/05/01 12:33:25;;;;;;;15.02;13.63;;;;;;;;;;4999202;28;20411;-81
2021/05/01 12:35:52;;;;;;;13.98;12.68;;;;;;;;;;4999331;28;20395;-79
2021/05/01 12:38:19;;;;;;;14.90;13.40;;;;;;;;;;5000892;28;20391;-81
2021/05/01 12:40:45;;;;;;;13.88;12.57;;;;;;;;;;5002749;28;20393;-81
2021/05/01 12:43:30;;;;;;;14.43;12.55;;;;;;;;;;4992115;28;20404;-81
2021/05/01 12:45:56;;;;;;;14.93;13.40;;;;;;;;;;5001464;28;21059;-82
2021/05/01 12:48:52;;;;;;;13.07;11.75;;;;;;;;;;5004593;28;20781;-86
2021/05/01 12:51:20;;;;;;;12.98;11.70;;;;;;;;;;4989988;28;20403;-79
2021/05/01 12:53:47;;;;;;;12.88;11.48;;;;;;;;;;5002267;28;20402;-82
2021/05/01 12:56:21;;;;;;;13.02;11.73;;;;;;;;;;4998958;28;20853;-82
2021/05/01 12:58:47;;;;;;;13.40;12.10;;;;;;;;;;5002637;28;20861;-81
2021/05/01 13:01:22;;;;;;;12.60;11.25;;;;;;;;;;5003194;28;20383;-81
2021/05/01 13:04:07;;;;;;;13.35;11.85;;;;;;;;;;5002060;28;20377;-83
2021/05/01 13:06:33;;;;;;;12.48;11.27;;;;;;;;;;4994532;28;20426;-80
2021/05/01 13:08:59;;;;;;;12.93;11.18;;;;;;;;;;4996382;28;20479;-81
2021/05/01 13:11:29;;;;;;;12.27;10.90;;;;;;;;;;4990949;28;20870;-78
2021/05/01 13:14:13;;;;;;;12.90;11.65;;;;;;;;;;5005761;28;20375;-82
2021/05/01 13:17:15;;;;;;;11.85;10.75;;;;;;;;;;5010699;28;20398;-82
2021/05/01 13:19:47;;;;;;;12.13;11.00;;;;;;;;;;4965572;28;20393;-79
2021/05/01 13:22:18;;;;;;;12.85;11.65;;;;;;;;;;4994639;28;20406;-79
2021/05/01 13:24:44;;;;;;;12.07;10.85;;;;;;;;;;5010918;28;20379;-79
2021/05/01 13:27:12;;;;;;;11.98;10.88;;;;;;;;;;5009656;28;20473;-79
2021/05/01 13:29:40;;;;;;;12.63;11.13;;;;;;;;;;5009706;28;20914;-78
2021/05/01 13:32:07;;;;;;;12.02;10.82;;;;;;;;;;5003307;28;20415;-79
2021/05/01 13:34:33;;;;;;;12.73;11.40;;;;;;;;;;4996679;28;20418;-79
2021/05/01 13:36:59;;;;;;;12.98;11.70;;;;;;;;;;4997111;28;20377;-78
2021/05/01 13:39:27;;;;;;;12.30;10.63;;;;;;;;;;4998186;28;20437;-80
2021/05/01 13:42:10;;;;;;;12.30;11.10;;;;;;;;;;5000127;28;20373;-79
2021/05/01 13:44:40;;;;;;;11.95;10.77;;;;;;;;;;5000380;28;20376;-79
2021/05/01 13:47:16;;;;;;;12.23;11.13;;;;;;;;;;4996637;28;20412;-79
2021/05/01 13:49:42;;;;;;;13.13;11.68;;;;;;;;;;4997982;28;20825;-79
2021/05/01 13:52:08;;;;;;;12.48;11.27;;;;;;;;;;4998908;28;20416;-79
2021/05/01 13:54:35;;;;;;;12.10;11.00;;;;;;;;;;4999260;28;20387;-80
2021/05/01 13:57:08;;;;;;;12.63;11.33;;;;;;;;;;4995067;28;20381;-79
2021/05/01 13:59:34;;;;;;;12.77;11.23;;;;;;;;;;4992406;28;20381;-80
2021/05/01 14:02:00;;;;;;;12.02;10.90;;;;;;;;;;5000418;28;20434;-79
2021/05/01 14:04:27;;;;;;;11.55;10.43;;;;;;;;;;4999920;28;20385;-80
2021/05/01 14:07:09;;;;;;;13.13;11.77;;;;;;;;;;4998283;28;20409;-81
2021/05/01 14:09:35;;;;;;;11.15;10.05;;;;;;;;;;5008044;28;20407;-80
2021/05/01 14:12:01;;;;;;;12.05;10.82;;;;;;;;;;5010174;28;20386;-82
2021/05/01 14:14:31;;;;;;;11.63;10.52;;;;;;;;;;5001424;28;20397;-81
2021/05/01 14:17:03;;;;;;;12.23;11.02;;;;;;;;;;4999859;28;20393;-82
2021/05/01 14:20:11;;;;;;;11.43;10.25;;;;;;;;;;4997610;28;20387;-81
2021/05/01 14:22:37;;;;;;;12.02;10.82;;;;;;;;;;4949398;28;20896;-82
2021/05/01 14:25:04;;;;;;;12.20;11.00;;;;;;;;;;5008688;28;20469;-80
2021/05/01 14:28:03;;;;;;;12.68;11.48;;;;;;;;;;5005866;28;20375;-84
2021/05/01 14:33:34;;;;;;;12.70;11.50;;;;;;;;;;5003309;28;20409;-91
2021/05/01 14:42:12;;;;;;;12.80;10.57;;;;;;;;;;4954603;29;20407;-90
2021/05/01 14:47:52;;;;;;;11.40;10.20;;;;;;;;;;4933959;29;20389;-93
2021/05/01 14:50:29;;;;;;;11.13;10.02;;;;;;;;;;4918639;29;20394;-94
2021/05/01 14:52:55;;;;;;;11.48;10.38;;;;;;;;;;5020329;28;20371;-93
2021/05/01 14:55:23;;;;;;;11.43;10.23;;;;;;;;;;5002433;28;20415;-93
2021/05/01 14:57:49;;;;;;;12.48;11.05;;;;;;;;;;5000801;28;20408;-93
2021/05/01 15:00:18;;;;;;;12.55;11.25;;;;;;;;;;5001240;28;20371;-94
2021/05/01 15:02:45;;;;;;;12.30;11.10;;;;;;;;;;5001994;28;20438;-94
2021/05/01 15:05:28;;;;;;;12.82;11.52;;;;;;;;;;5000902;28;20819;-93
2021/05/01 15:08:28;;;;;;;12.48;11.23;;;;;;;;;;4998042;28;20435;-93
2021/05/01 15:10:59;;;;;;;11.55;10.40;;;;;;;;;;4991825;28;20403;-90
2021/05/01 15:13:26;;;;;;;12.45;11.18;;;;;;;;;;4991068;28;20866;-92
2021/05/01 15:16:00;;;;;;;11.07;9.98;;;;;;;;;;4993374;28;20377;-91